Terminal Aerodrome Forecast
Issued by NWS

Home | Current Version | Previous Version | Graphics & Text | Print | Product List | Glossary On
Versions: 1 2 3 4 5 6 7 8 9 10 11 12 13 14 15
000
FTUS43 KBIS 300522
TAFJMS
TAF
KJMS 300522Z 3006/3106 27006KT P6SM SKC
     FM301500 28012G17KT P6SM SKC
     FM301700 28015G25KT P6SM SCT080
     FM302200 31015G25KT P6SM SCT080
     FM310100 32007KT P6SM SKC=

USA.gov is the U.S. government's official web portal to all federal, state and local government web resources and services.